Time;durP1;ratioP1;P1;durP2;ratioP2;P2;SDS_P1;SDS_P2;PMS_P1;PMS_P2;Temp;Humidity;BMP_temperature;BMP_pressure;BME280_temperature;BME280_humidity;BME280_pressure;Samples;Min_cycle;Max_cycle;Signal;HPM_P1;HPM_P2
2024/01/17 00:01:29;;;;;;;7.68;3.90;;;;;;;;;;5038610;28;20071;-62
2024/01/17 00:03:55;;;;;;;7.70;4.32;;;;;;;;;;5045526;28;20119;-61
2024/01/17 00:06:20;;;;;;;5.28;3.45;;;;;;;;;;5043110;28;20807;-61
2024/01/17 00:08:47;;;;;;;5.22;3.13;;;;;;;;;;5046660;28;20041;-61
2024/01/17 00:11:13;;;;;;;5.38;3.40;;;;;;;;;;5045052;28;20698;-61
2024/01/17 00:13:39;;;;;;;6.97;3.15;;;;;;;;;;5045676;28;20091;-61
2024/01/17 00:16:05;;;;;;;5.13;3.63;;;;;;;;;;5045993;28;20132;-61
2024/01/17 00:18:31;;;;;;;6.68;4.43;;;;;;;;;;5045208;28;20047;-61
2024/01/17 00:20:57;;;;;;;3.45;3.15;;;;;;;;;;5042733;28;20041;-61
2024/01/17 00:23:23;;;;;;;6.57;4.13;;;;;;;;;;5035301;28;20458;-61
2024/01/17 00:25:50;;;;;;;5.60;3.50;;;;;;;;;;5036726;28;20053;-61
2024/01/17 00:28:16;;;;;;;5.55;3.15;;;;;;;;;;5035385;28;20052;-61
2024/01/17 00:30:42;;;;;;;3.88;3.47;;;;;;;;;;5033886;28;20803;-61
2024/01/17 00:33:08;;;;;;;3.75;3.22;;;;;;;;;;5034410;28;20057;-61
2024/01/17 00:35:34;;;;;;;8.63;3.15;;;;;;;;;;5034596;28;20041;-61
2024/01/17 00:38:00;;;;;;;3.85;3.45;;;;;;;;;;5032097;28;20060;-61
2024/01/17 00:40:27;;;;;;;4.45;3.63;;;;;;;;;;5035171;28;20415;-61
2024/01/17 00:42:55;;;;;;;5.65;3.58;;;;;;;;;;5033763;28;20049;-61
2024/01/17 00:45:21;;;;;;;5.32;4.03;;;;;;;;;;5035544;28;20190;-61
2024/01/17 00:47:47;;;;;;;4.47;3.92;;;;;;;;;;5032213;28;20115;-61
2024/01/17 00:50:14;;;;;;;4.53;3.90;;;;;;;;;;5038015;28;20041;-61
2024/01/17 00:52:40;;;;;;;4.25;3.85;;;;;;;;;;5035734;28;20102;-61
2024/01/17 00:55:07;;;;;;;4.85;3.90;;;;;;;;;;5018186;28;20053;-61
2024/01/17 00:57:33;;;;;;;5.47;4.40;;;;;;;;;;5035780;28;20568;-61
2024/01/17 00:59:59;;;;;;;8.48;5.82;;;;;;;;;;5037601;28;20072;-61
2024/01/17 01:02:25;;;;;;;5.30;4.80;;;;;;;;;;5032210;28;20487;-61
2024/01/17 01:04:51;;;;;;;7.70;5.25;;;;;;;;;;5034535;28;20041;-61
2024/01/17 01:07:18;;;;;;;8.57;5.88;;;;;;;;;;5035555;28;20174;-61
2024/01/17 01:09:44;;;;;;;6.03;5.18;;;;;;;;;;5037047;28;20045;-61
2024/01/17 01:12:10;;;;;;;6.65;5.18;;;;;;;;;;5033265;28;20483;-61
2024/01/17 01:14:36;;;;;;;6.75;5.80;;;;;;;;;;5032862;28;20041;-61
2024/01/17 01:17:02;;;;;;;7.63;5.15;;;;;;;;;;5033848;28;20040;-61
2024/01/17 01:19:28;;;;;;;6.38;5.78;;;;;;;;;;5034470;28;20490;-61
2024/01/17 01:21:54;;;;;;;7.45;5.97;;;;;;;;;;5029510;28;20083;-61
2024/01/17 01:24:20;;;;;;;9.38;5.47;;;;;;;;;;5031949;28;20045;-62
2024/01/17 01:26:46;;;;;;;8.40;5.18;;;;;;;;;;5033311;28;20132;-61
2024/01/17 01:29:12;;;;;;;9.88;6.25;;;;;;;;;;5033884;28;20059;-61
2024/01/17 01:31:38;;;;;;;8.55;5.43;;;;;;;;;;5033432;28;20041;-61
2024/01/17 01:34:04;;;;;;;7.65;5.95;;;;;;;;;;5033336;28;20764;-61
2024/01/17 01:36:30;;;;;;;7.93;6.03;;;;;;;;;;5037048;28;20557;-61
2024/01/17 01:38:56;;;;;;;8.30;6.10;;;;;;;;;;5036645;28;20182;-61
2024/01/17 01:41:22;;;;;;;7.15;5.75;;;;;;;;;;5039388;28;20047;-62
2024/01/17 01:43:48;;;;;;;7.03;6.32;;;;;;;;;;5038381;28;20041;-61
2024/01/17 01:46:17;;;;;;;9.23;6.22;;;;;;;;;;5036160;28;20041;-60
2024/01/17 01:48:44;;;;;;;7.57;6.47;;;;;;;;;;5037451;28;20467;-61
2024/01/17 01:51:14;;;;;;;7.93;5.40;;;;;;;;;;5040770;28;20113;-61
2024/01/17 01:53:42;;;;;;;6.90;6.13;;;;;;;;;;5036326;28;20047;-61
2024/01/17 01:56:09;;;;;;;9.35;5.70;;;;;;;;;;5034922;28;20047;-60
2024/01/17 01:58:35;;;;;;;12.45;6.20;;;;;;;;;;5042811;28;20503;-61
2024/01/17 02:01:03;;;;;;;8.88;6.75;;;;;;;;;;5036398;28;20053;-61
2024/01/17 02:03:30;;;;;;;10.48;7.15;;;;;;;;;;5041840;28;20068;-61
2024/01/17 02:05:56;;;;;;;9.10;6.90;;;;;;;;;;5040919;28;20032;-61
2024/01/17 02:08:22;;;;;;;9.15;6.50;;;;;;;;;;5041670;28;20054;-60
2024/01/17 02:10:48;;;;;;;11.48;7.03;;;;;;;;;;5042829;28;20083;-61
2024/01/17 02:13:15;;;;;;;8.57;5.65;;;;;;;;;;5035086;28;20043;-61
2024/01/17 02:15:41;;;;;;;8.85;6.90;;;;;;;;;;5036088;28;20048;-61
2024/01/17 02:18:07;;;;;;;10.65;7.32;;;;;;;;;;5041066;28;20040;-61
2024/01/17 02:20:33;;;;;;;10.90;8.30;;;;;;;;;;5038355;28;20077;-61
2024/01/17 02:22:59;;;;;;;9.63;6.93;;;;;;;;;;5037197;28;20118;-61
2024/01/17 02:25:25;;;;;;;8.60;7.15;;;;;;;;;;5032294;28;20051;-61
2024/01/17 02:27:51;;;;;;;9.90;7.10;;;;;;;;;;5028295;28;20041;-61
2024/01/17 02:30:17;;;;;;;10.30;7.30;;;;;;;;;;5036597;28;20063;-61
2024/01/17 02:32:44;;;;;;;8.10;6.60;;;;;;;;;;5037400;28;20414;-61
2024/01/17 02:35:10;;;;;;;8.63;7.70;;;;;;;;;;5034612;28;20044;-60
2024/01/17 02:37:36;;;;;;;9.38;7.40;;;;;;;;;;5038344;28;20083;-61
2024/01/17 02:40:02;;;;;;;10.00;6.93;;;;;;;;;;5035114;28;20088;-61
2024/01/17 02:42:28;;;;;;;13.43;8.18;;;;;;;;;;5035069;28;20044;-61
2024/01/17 02:44:54;;;;;;;10.05;8.35;;;;;;;;;;5032672;28;20048;-61
2024/01/17 02:47:20;;;;;;;11.73;9.02;;;;;;;;;;5034464;28;20718;-61
2024/01/17 02:49:46;;;;;;;8.40;7.35;;;;;;;;;;5034652;28;20053;-62
2024/01/17 02:52:12;;;;;;;14.15;8.80;;;;;;;;;;5036316;28;20036;-61
2024/01/17 02:54:38;;;;;;;11.48;8.35;;;;;;;;;;5034183;28;20482;-62
2024/01/17 02:57:04;;;;;;;14.20;8.30;;;;;;;;;;5034531;28;20037;-61
2024/01/17 02:59:31;;;;;;;8.55;7.32;;;;;;;;;;5036244;28;20509;-61
2024/01/17 03:01:58;;;;;;;11.85;8.77;;;;;;;;;;5036685;28;20120;-61
2024/01/17 03:04:24;;;;;;;13.38;8.45;;;;;;;;;;5017860;28;20045;-62
2024/01/17 03:06:51;;;;;;;10.43;7.90;;;;;;;;;;5038472;28;20387;-61
2024/01/17 03:09:17;;;;;;;11.57;8.48;;;;;;;;;;5036328;28;20045;-62
2024/01/17 03:11:43;;;;;;;11.43;8.07;;;;;;;;;;5036800;28;20060;-61
2024/01/17 03:14:09;;;;;;;9.30;8.05;;;;;;;;;;5013419;28;20403;-61
2024/01/17 03:16:36;;;;;;;11.18;8.15;;;;;;;;;;5017868;28;20103;-61
2024/01/17 03:19:02;;;;;;;10.50;8.48;;;;;;;;;;5033726;28;20044;-61
2024/01/17 03:21:28;;;;;;;9.10;8.02;;;;;;;;;;5033553;28;20042;-61
2024/01/17 03:23:55;;;;;;;9.40;7.65;;;;;;;;;;5032030;28;20491;-60
2024/01/17 03:26:20;;;;;;;8.13;7.32;;;;;;;;;;5033216;28;22106;-61
2024/01/17 03:28:46;;;;;;;8.50;6.88;;;;;;;;;;5032839;28;20125;-61
2024/01/17 03:31:12;;;;;;;9.48;7.88;;;;;;;;;;5035691;28;20052;-61
2024/01/17 03:33:38;;;;;;;8.68;7.75;;;;;;;;;;5034860;28;20498;-61
2024/01/17 03:36:05;;;;;;;11.52;7.32;;;;;;;;;;5034583;28;20091;-61
2024/01/17 03:38:31;;;;;;;11.73;7.60;;;;;;;;;;5034662;28;20052;-61
2024/01/17 03:41:00;;;;;;;9.13;7.47;;;;;;;;;;5031371;28;20214;-61
2024/01/17 03:43:26;;;;;;;9.80;7.55;;;;;;;;;;5036882;28;20051;-62
2024/01/17 03:45:54;;;;;;;13.05;8.95;;;;;;;;;;5014049;28;20136;-61
2024/01/17 03:48:20;;;;;;;11.25;9.02;;;;;;;;;;5033439;28;20045;-62
2024/01/17 03:50:46;;;;;;;15.32;9.73;;;;;;;;;;5032874;28;20534;-61
2024/01/17 03:53:12;;;;;;;13.50;9.60;;;;;;;;;;5033435;28;20114;-61
2024/01/17 03:55:38;;;;;;;14.88;10.07;;;;;;;;;;5037526;28;20453;-61
2024/01/17 03:58:04;;;;;;;12.20;9.15;;;;;;;;;;5031952;28;20029;-61
2024/01/17 04:00:30;;;;;;;12.38;9.73;;;;;;;;;;5033509;28;20041;-61
2024/01/17 04:02:56;;;;;;;12.32;9.75;;;;;;;;;;5034433;28;20091;-61
2024/01/17 04:05:22;;;;;;;13.27;9.20;;;;;;;;;;5038168;28;20049;-61
2024/01/17 04:07:48;;;;;;;11.20;9.35;;;;;;;;;;5040716;28;20521;-61
2024/01/17 04:10:15;;;;;;;10.55;8.43;;;;;;;;;;5036652;28;20103;-61
2024/01/17 04:12:41;;;;;;;12.00;7.88;;;;;;;;;;5040813;28;20069;-61
2024/01/17 04:15:07;;;;;;;10.27;8.40;;;;;;;;;;5038366;28;20966;-61
2024/01/17 04:17:33;;;;;;;8.90;7.75;;;;;;;;;;5039809;28;20040;-61
2024/01/17 04:19:59;;;;;;;11.30;8.70;;;;;;;;;;5037990;28;20094;-61
2024/01/17 04:22:25;;;;;;;11.45;8.10;;;;;;;;;;5037092;28;20037;-61
2024/01/17 04:24:51;;;;;;;8.93;8.02;;;;;;;;;;5033455;28;20452;-61
2024/01/17 04:27:17;;;;;;;11.75;8.63;;;;;;;;;;5034912;28;20041;-61
2024/01/17 04:29:43;;;;;;;11.75;8.88;;;;;;;;;;5034454;28;20391;-61
2024/01/17 04:32:09;;;;;;;13.32;9.75;;;;;;;;;;5031341;28;20048;-61
2024/01/17 04:34:35;;;;;;;13.50;9.23;;;;;;;;;;5030433;28;20038;-61
2024/01/17 04:37:01;;;;;;;11.02;9.15;;;;;;;;;;5032765;28;20589;-60
2024/01/17 04:39:27;;;;;;;12.07;8.90;;;;;;;;;;5035868;28;20047;-61
2024/01/17 04:41:53;;;;;;;13.68;9.07;;;;;;;;;;5029821;28;20400;-61
2024/01/17 04:44:19;;;;;;;12.25;10.32;;;;;;;;;;5028912;28;20047;-61
2024/01/17 04:46:46;;;;;;;14.13;9.80;;;;;;;;;;5034793;28;20040;-61
2024/01/17 04:49:12;;;;;;;14.73;10.15;;;;;;;;;;5030089;28;20049;-61
2024/01/17 04:51:40;;;;;;;14.75;10.88;;;;;;;;;;5035331;28;20521;-61
2024/01/17 04:54:07;;;;;;;14.63;10.70;;;;;;;;;;5032341;28;20048;-61
2024/01/17 04:56:33;;;;;;;12.60;9.30;;;;;;;;;;5032333;28;20049;-61
2024/01/17 04:58:59;;;;;;;11.68;9.50;;;;;;;;;;5030994;28;20040;-61
2024/01/17 05:01:25;;;;;;;12.00;9.30;;;;;;;;;;5031935;28;20052;-61
2024/01/17 05:03:51;;;;;;;12.27;9.38;;;;;;;;;;5033953;28;20056;-61
2024/01/17 05:06:17;;;;;;;13.80;10.40;;;;;;;;;;5033172;28;20045;-61
2024/01/17 05:08:43;;;;;;;16.55;10.05;;;;;;;;;;5030535;28;20095;-61
2024/01/17 05:11:09;;;;;;;12.73;10.07;;;;;;;;;;5032390;28;20050;-61
2024/01/17 05:13:35;;;;;;;13.30;9.85;;;;;;;;;;5034787;28;20064;-62
2024/01/17 05:16:01;;;;;;;12.95;9.57;;;;;;;;;;5037967;28;20036;-61
2024/01/17 05:18:27;;;;;;;15.57;10.48;;;;;;;;;;5035893;28;20132;-61
2024/01/17 05:20:53;;;;;;;12.85;10.05;;;;;;;;;;5039570;28;20111;-61
2024/01/17 05:23:19;;;;;;;12.52;8.95;;;;;;;;;;5038593;28;20144;-61
2024/01/17 05:25:46;;;;;;;11.90;9.40;;;;;;;;;;5039600;28;20053;-61
2024/01/17 05:28:12;;;;;;;13.52;10.10;;;;;;;;;;5037471;28;20136;-61
2024/01/17 05:30:38;;;;;;;13.25;9.88;;;;;;;;;;5038187;28;20120;-61
2024/01/17 05:33:04;;;;;;;14.80;9.77;;;;;;;;;;5037605;28;20036;-61
2024/01/17 05:35:30;;;;;;;15.43;10.20;;;;;;;;;;5037222;28;20037;-61
2024/01/17 05:37:56;;;;;;;15.93;9.90;;;;;;;;;;5040368;28;20051;-61
2024/01/17 05:40:22;;;;;;;14.55;10.45;;;;;;;;;;5038762;28;20037;-60
2024/01/17 05:42:48;;;;;;;16.73;10.48;;;;;;;;;;5035250;28;20044;-61
2024/01/17 05:45:14;;;;;;;13.43;9.75;;;;;;;;;;5034279;28;20037;-61
2024/01/17 05:47:40;;;;;;;14.38;9.70;;;;;;;;;;5036934;28;20045;-61
2024/01/17 05:50:11;;;;;;;14.68;9.70;;;;;;;;;;5037538;28;20098;-61
2024/01/17 05:52:41;;;;;;;14.05;9.93;;;;;;;;;;5037793;28;20045;-61
2024/01/17 05:55:08;;;;;;;12.20;8.65;;;;;;;;;;5037410;28;20082;-60
2024/01/17 05:57:34;;;;;;;11.95;9.45;;;;;;;;;;5036456;28;20503;-61
2024/01/17 06:00:00;;;;;;;13.55;9.50;;;;;;;;;;5042702;28;20052;-61
2024/01/17 06:02:26;;;;;;;12.75;9.10;;;;;;;;;;5038060;28;20392;-61
2024/01/17 06:04:52;;;;;;;10.90;8.40;;;;;;;;;;5040559;28;20041;-62
2024/01/17 06:07:18;;;;;;;10.95;8.57;;;;;;;;;;5037318;28;20040;-61
2024/01/17 06:09:44;;;;;;;12.75;8.98;;;;;;;;;;5032879;28;20041;-61
2024/01/17 06:12:10;;;;;;;8.20;7.10;;;;;;;;;;5033256;28;20388;-62
2024/01/17 06:14:37;;;;;;;10.95;7.85;;;;;;;;;;5035259;28;20049;-61
2024/01/17 06:17:03;;;;;;;8.85;7.32;;;;;;;;;;5035611;28;20037;-60
2024/01/17 06:19:29;;;;;;;10.77;8.57;;;;;;;;;;5038759;28;21049;-61
2024/01/17 06:21:55;;;;;;;12.10;9.25;;;;;;;;;;5037739;28;20040;-61
2024/01/17 06:24:21;;;;;;;10.90;8.35;;;;;;;;;;5036379;28;20515;-61
2024/01/17 06:26:47;;;;;;;13.63;9.60;;;;;;;;;;5039758;28;20080;-61
2024/01/17 06:29:13;;;;;;;12.18;8.68;;;;;;;;;;5034383;28;21474;-61
2024/01/17 06:31:39;;;;;;;13.27;8.75;;;;;;;;;;5035743;28;20689;-61
2024/01/17 06:34:05;;;;;;;11.68;8.80;;;;;;;;;;5036400;28;20049;-61
2024/01/17 06:36:32;;;;;;;10.90;9.30;;;;;;;;;;5035130;28;20090;-61
2024/01/17 06:38:59;;;;;;;13.85;9.07;;;;;;;;;;5033558;28;20487;-61
2024/01/17 06:41:25;;;;;;;12.43;9.75;;;;;;;;;;5033736;28;20064;-61
2024/01/17 06:43:51;;;;;;;12.70;9.55;;;;;;;;;;5034330;28;20049;-61
2024/01/17 06:46:17;;;;;;;13.63;10.65;;;;;;;;;;5034273;28;20045;-61
2024/01/17 06:48:44;;;;;;;14.05;9.63;;;;;;;;;;5034134;28;20041;-61
2024/01/17 06:51:10;;;;;;;12.40;9.65;;;;;;;;;;5031200;28;20048;-61
2024/01/17 06:53:36;;;;;;;16.58;10.23;;;;;;;;;;5032951;28;20049;-61
2024/01/17 06:56:02;;;;;;;13.13;10.25;;;;;;;;;;5031606;28;20045;-61
2024/01/17 06:58:28;;;;;;;12.70;9.45;;;;;;;;;;5033948;28;20394;-61
2024/01/17 07:00:54;;;;;;;11.43;8.90;;;;;;;;;;5037867;28;20068;-61
2024/01/17 07:03:20;;;;;;;13.38;9.48;;;;;;;;;;5030721;28;20120;-61
2024/01/17 07:05:46;;;;;;;13.07;9.73;;;;;;;;;;5036527;28;20072;-61
2024/01/17 07:08:12;;;;;;;16.08;10.15;;;;;;;;;;5034912;28;20070;-61
2024/01/17 07:10:39;;;;;;;12.32;9.82;;;;;;;;;;4999540;28;1050227;-61
2024/01/17 07:13:05;;;;;;;13.50;9.77;;;;;;;;;;5031425;28;20469;-60
2024/01/17 07:15:31;;;;;;;10.90;9.02;;;;;;;;;;5036477;28;20064;-60
2024/01/17 07:17:58;;;;;;;11.93;9.50;;;;;;;;;;5036674;28;20089;-61
2024/01/17 07:20:24;;;;;;;16.17;10.65;;;;;;;;;;5037691;28;20050;-61
2024/01/17 07:22:50;;;;;;;12.75;10.02;;;;;;;;;;5039400;28;20045;-61
2024/01/17 07:25:16;;;;;;;13.20;9.27;;;;;;;;;;5031228;28;20041;-61
2024/01/17 07:27:46;;;;;;;13.77;9.82;;;;;;;;;;5036827;28;20585;-61
2024/01/17 07:30:12;;;;;;;14.70;9.48;;;;;;;;;;5033122;28;20044;-61
2024/01/17 07:32:39;;;;;;;14.23;9.90;;;;;;;;;;5019513;28;20053;-61
2024/01/17 07:35:08;;;;;;;11.30;8.27;;;;;;;;;;5033979;28;20071;-62
2024/01/17 07:37:35;;;;;;;9.43;7.55;;;;;;;;;;5036768;28;20041;-61
2024/01/17 07:40:02;;;;;;;9.77;7.88;;;;;;;;;;5033219;28;20408;-60
2024/01/17 07:42:28;;;;;;;9.63;7.70;;;;;;;;;;5032848;28;20041;-61
2024/01/17 07:44:54;;;;;;;12.02;8.50;;;;;;;;;;5036146;28;20048;-61
2024/01/17 07:47:20;;;;;;;11.95;9.20;;;;;;;;;;5033816;28;20040;-61
2024/01/17 07:49:46;;;;;;;11.38;8.60;;;;;;;;;;5032596;28;20554;-61
2024/01/17 07:52:12;;;;;;;10.73;7.80;;;;;;;;;;5028379;28;20042;-61
2024/01/17 07:54:38;;;;;;;9.30;7.50;;;;;;;;;;5038216;28;20522;-61
2024/01/17 07:57:05;;;;;;;9.02;7.25;;;;;;;;;;5035146;28;20037;-62
2024/01/17 07:59:31;;;;;;;11.57;8.05;;;;;;;;;;5033016;28;20656;-61
2024/01/17 08:01:57;;;;;;;9.50;8.50;;;;;;;;;;5035101;28;20044;-61
2024/01/17 08:04:23;;;;;;;9.57;7.70;;;;;;;;;;5032392;28;20072;-61
2024/01/17 08:06:49;;;;;;;10.65;7.63;;;;;;;;;;5034748;28;20388;-61
2024/01/17 08:09:21;;;;;;;9.38;7.75;;;;;;;;;;5035581;28;20044;-61
2024/01/17 08:11:52;;;;;;;11.63;7.78;;;;;;;;;;5034839;28;20541;-61
2024/01/17 08:14:18;;;;;;;10.27;7.68;;;;;;;;;;5029320;28;20049;-61
2024/01/17 08:16:44;;;;;;;9.15;7.20;;;;;;;;;;5031903;28;20041;-62
2024/01/17 08:19:10;;;;;;;7.68;6.72;;;;;;;;;;5031711;28;20128;-62
2024/01/17 08:21:37;;;;;;;9.43;6.95;;;;;;;;;;5037109;28;20056;-62
2024/01/17 08:24:03;;;;;;;9.48;7.30;;;;;;;;;;5036551;28;20131;-61
2024/01/17 08:26:29;;;;;;;7.80;6.57;;;;;;;;;;5032899;28;20447;-61
2024/01/17 08:28:55;;;;;;;8.65;6.80;;;;;;;;;;5036429;28;20059;-61
2024/01/17 08:31:21;;;;;;;7.65;6.32;;;;;;;;;;5034147;28;20037;-61
2024/01/17 08:33:47;;;;;;;9.38;7.75;;;;;;;;;;5031473;28;20051;-61
2024/01/17 08:36:14;;;;;;;10.82;8.20;;;;;;;;;;5030364;28;20109;-61
2024/01/17 08:38:40;;;;;;;13.45;9.77;;;;;;;;;;5012650;28;20045;-61
2024/01/17 08:41:07;;;;;;;11.93;9.45;;;;;;;;;;5034770;28;20566;-61
2024/01/17 08:43:33;;;;;;;12.82;10.05;;;;;;;;;;5030907;28;20042;-61
2024/01/17 08:46:00;;;;;;;12.00;8.95;;;;;;;;;;5032712;28;20517;-61
2024/01/17 08:48:26;;;;;;;11.60;9.27;;;;;;;;;;5031012;28;20171;-61
2024/01/17 08:50:53;;;;;;;12.05;8.77;;;;;;;;;;5033777;28;20070;-60
2024/01/17 08:53:19;;;;;;;12.88;9.27;;;;;;;;;;5033237;28;20125;-61
2024/01/17 08:55:45;;;;;;;11.90;8.95;;;;;;;;;;5034110;28;20037;-61
2024/01/17 08:58:11;;;;;;;12.15;8.60;;;;;;;;;;5033589;28;20045;-61
2024/01/17 09:00:37;;;;;;;11.70;9.27;;;;;;;;;;5031421;28;20052;-61
2024/01/17 09:03:04;;;;;;;12.57;9.57;;;;;;;;;;5031912;28;20554;-62
2024/01/17 09:05:30;;;;;;;11.07;9.55;;;;;;;;;;5032065;28;20049;-61
2024/01/17 09:07:57;;;;;;;12.02;9.23;;;;;;;;;;5036994;28;20067;-60
2024/01/17 09:10:23;;;;;;;10.27;8.00;;;;;;;;;;5041686;28;20521;-61
2024/01/17 09:12:52;;;;;;;11.30;8.05;;;;;;;;;;5020858;28;20056;-61
2024/01/17 09:15:18;;;;;;;11.35;8.73;;;;;;;;;;5041147;28;20049;-61
2024/01/17 09:17:44;;;;;;;10.43;8.30;;;;;;;;;;5028826;28;20029;-60
2024/01/17 09:20:10;;;;;;;11.88;8.98;;;;;;;;;;5040287;28;20090;-61
2024/01/17 09:22:36;;;;;;;11.95;9.43;;;;;;;;;;5038528;28;20044;-62
2024/01/17 09:25:02;;;;;;;11.88;8.35;;;;;;;;;;5037756;28;20044;-63
2024/01/17 09:27:29;;;;;;;10.55;8.90;;;;;;;;;;5045563;28;20137;-60
2024/01/17 09:29:55;;;;;;;11.38;8.82;;;;;;;;;;5045527;28;20104;-60
2024/01/17 09:32:21;;;;;;;10.52;9.32;;;;;;;;;;5043319;28;20045;-60
2024/01/17 09:34:47;;;;;;;10.95;8.85;;;;;;;;;;5042527;28;20076;-60
2024/01/17 09:37:16;;;;;;;11.55;8.82;;;;;;;;;;5037935;28;20625;-60
2024/01/17 09:39:43;;;;;;;11.82;9.10;;;;;;;;;;5044109;28;20041;-58
2024/01/17 09:42:10;;;;;;;10.40;8.60;;;;;;;;;;5038393;28;20041;-56
2024/01/17 09:44:37;;;;;;;12.82;9.15;;;;;;;;;;5037578;28;20045;-59
2024/01/17 09:47:05;;;;;;;12.07;9.70;;;;;;;;;;5040648;28;20124;-61
2024/01/17 09:49:31;;;;;;;12.77;9.93;;;;;;;;;;5044217;28;20262;-57
2024/01/17 09:51:59;;;;;;;11.65;9.20;;;;;;;;;;5033891;28;20449;-59
2024/01/17 09:54:25;;;;;;;10.82;8.50;;;;;;;;;;5036558;28;20033;-58
2024/01/17 09:56:53;;;;;;;12.32;8.80;;;;;;;;;;5030663;28;20120;-58
2024/01/17 09:59:23;;;;;;;10.88;8.70;;;;;;;;;;5032379;28;20076;-61
2024/01/17 10:01:49;;;;;;;8.02;7.05;;;;;;;;;;5023309;28;20041;-60
2024/01/17 10:04:15;;;;;;;9.15;7.25;;;;;;;;;;5038756;28;20377;-60
2024/01/17 10:06:44;;;;;;;8.65;7.40;;;;;;;;;;5043438;28;20045;-60
2024/01/17 10:09:11;;;;;;;8.35;7.53;;;;;;;;;;5043033;28;20037;-60
2024/01/17 10:11:38;;;;;;;10.00;7.90;;;;;;;;;;5044690;28;20120;-60
2024/01/17 10:14:04;;;;;;;10.88;8.73;;;;;;;;;;5042060;28;20033;-60
2024/01/17 10:16:31;;;;;;;9.80;7.78;;;;;;;;;;5043434;28;20032;-60
2024/01/17 10:18:57;;;;;;;10.57;8.50;;;;;;;;;;5041178;28;20048;-60
2024/01/17 10:21:23;;;;;;;9.88;8.15;;;;;;;;;;5044731;28;20663;-61
2024/01/17 10:23:49;;;;;;;8.20;6.68;;;;;;;;;;5047258;28;20044;-60
2024/01/17 10:26:15;;;;;;;8.10;6.25;;;;;;;;;;5045967;28;20041;-61
2024/01/17 10:28:41;;;;;;;8.02;6.43;;;;;;;;;;5036445;28;20083;-60
2024/01/17 10:31:10;;;;;;;8.57;7.05;;;;;;;;;;5045055;28;20041;-61
2024/01/17 10:33:39;;;;;;;8.48;7.55;;;;;;;;;;5043443;28;20049;-61
2024/01/17 10:36:05;;;;;;;9.65;7.85;;;;;;;;;;5045581;28;20076;-60
2024/01/17 10:38:34;;;;;;;12.73;8.15;;;;;;;;;;5048145;28;20422;-61
2024/01/17 10:41:05;;;;;;;9.75;8.32;;;;;;;;;;5046300;28;20041;-60
2024/01/17 10:43:31;;;;;;;10.80;8.15;;;;;;;;;;5038263;28;20053;-60
2024/01/17 10:45:57;;;;;;;9.75;7.78;;;;;;;;;;5040254;28;20063;-60
2024/01/17 10:48:24;;;;;;;9.48;7.07;;;;;;;;;;5043066;28;20395;-60
2024/01/17 10:50:52;;;;;;;10.07;7.55;;;;;;;;;;5034685;28;20045;-61
2024/01/17 10:53:19;;;;;;;8.10;6.93;;;;;;;;;;5035370;28;20111;-60
2024/01/17 10:55:46;;;;;;;9.18;7.05;;;;;;;;;;5031777;28;20226;-60
2024/01/17 10:58:14;;;;;;;9.82;7.15;;;;;;;;;;5028201;28;20156;-60
2024/01/17 11:00:45;;;;;;;8.95;7.32;;;;;;;;;;5031144;28;20040;-60
2024/01/17 11:03:16;;;;;;;7.63;6.70;;;;;;;;;;5045291;28;20033;-60
2024/01/17 11:05:46;;;;;;;9.18;6.15;;;;;;;;;;5042107;28;20110;-60
2024/01/17 11:08:15;;;;;;;8.50;6.07;;;;;;;;;;5026994;28;20059;-60
2024/01/17 11:10:43;;;;;;;8.45;5.35;;;;;;;;;;5042804;28;20527;-60
2024/01/17 11:13:14;;;;;;;5.47;4.63;;;;;;;;;;5033190;28;20452;-61
2024/01/17 11:15:41;;;;;;;5.28;4.78;;;;;;;;;;5044945;28;20465;-60
2024/01/17 11:18:09;;;;;;;7.93;5.53;;;;;;;;;;5045039;28;20052;-61
2024/01/17 11:20:36;;;;;;;5.55;4.38;;;;;;;;;;5041102;28;20055;-60
2024/01/17 11:23:03;;;;;;;5.55;4.40;;;;;;;;;;5046610;28;20037;-60
2024/01/17 11:25:48;;;;;;;7.47;5.82;;;;;;;;;;5041202;28;20041;-59
2024/01/17 11:28:19;;;;;;;8.45;6.90;;;;;;;;;;5039686;28;20489;-61
2024/01/17 11:31:05;;;;;;;6.90;6.20;;;;;;;;;;5041333;28;20048;-60
2024/01/17 11:33:32;;;;;;;7.95;6.57;;;;;;;;;;5033633;28;20042;-59
2024/01/17 11:35:59;;;;;;;6.82;5.63;;;;;;;;;;5037944;28;20048;-59
2024/01/17 11:38:25;;;;;;;6.28;5.20;;;;;;;;;;5044560;28;20150;-60
2024/01/17 11:40:51;;;;;;;5.60;4.57;;;;;;;;;;5044032;28;20037;-60
2024/01/17 11:43:17;;;;;;;5.40;4.90;;;;;;;;;;5046005;28;20600;-60
2024/01/17 11:45:44;;;;;;;5.15;4.43;;;;;;;;;;5027391;28;20089;-60
2024/01/17 11:48:19;;;;;;;6.53;4.97;;;;;;;;;;5045982;28;20726;-60
2024/01/17 11:50:58;;;;;;;4.65;3.85;;;;;;;;;;5046433;28;20051;-60
2024/01/17 11:53:26;;;;;;;7.65;5.25;;;;;;;;;;5038146;28;20052;-59
2024/01/17 11:55:52;;;;;;;8.85;5.45;;;;;;;;;;5046214;28;20053;-59
2024/01/17 11:58:18;;;;;;;7.47;6.75;;;;;;;;;;5046031;28;20052;-59
2024/01/17 12:00:44;;;;;;;7.80;6.45;;;;;;;;;;5027185;28;20447;-60
2024/01/17 12:03:29;;;;;;;7.53;6.53;;;;;;;;;;5045987;28;20044;-60
2024/01/17 12:05:55;;;;;;;6.75;5.85;;;;;;;;;;5045937;28;20052;-60
2024/01/17 12:08:21;;;;;;;6.80;5.65;;;;;;;;;;5045249;28;20109;-60
2024/01/17 12:10:52;;;;;;;7.03;5.60;;;;;;;;;;5045778;28;20111;-60
2024/01/17 12:13:18;;;;;;;6.28;5.35;;;;;;;;;;5045669;28;20060;-59
2024/01/17 12:15:46;;;;;;;7.30;5.63;;;;;;;;;;5045151;28;20068;-59
2024/01/17 12:18:12;;;;;;;6.75;6.05;;;;;;;;;;5045933;28;20098;-60
2024/01/17 12:20:38;;;;;;;5.47;4.90;;;;;;;;;;5045212;28;20041;-60
2024/01/17 12:23:08;;;;;;;7.45;5.68;;;;;;;;;;5044676;28;20033;-59
2024/01/17 12:25:34;;;;;;;7.70;5.18;;;;;;;;;;5045300;28;20479;-59
2024/01/17 12:28:02;;;;;;;6.35;5.40;;;;;;;;;;5044600;28;20067;-60
2024/01/17 12:30:28;;;;;;;5.53;4.95;;;;;;;;;;5045806;28;20040;-60
2024/01/17 12:32:55;;;;;;;5.40;4.65;;;;;;;;;;5045488;28;20048;-60
2024/01/17 12:35:21;;;;;;;6.70;4.47;;;;;;;;;;5044808;28;20041;-59
2024/01/17 12:37:47;;;;;;;6.13;4.82;;;;;;;;;;5045394;28;20056;-60
2024/01/17 12:40:13;;;;;;;5.05;4.55;;;;;;;;;;5045062;28;20044;-60
2024/01/17 12:42:39;;;;;;;4.97;4.55;;;;;;;;;;5044338;28;20131;-59
2024/01/17 12:45:06;;;;;;;5.45;4.40;;;;;;;;;;5045018;28;20490;-60
2024/01/17 12:47:32;;;;;;;4.78;4.28;;;;;;;;;;5045013;28;20519;-60
2024/01/17 12:49:58;;;;;;;6.03;5.40;;;;;;;;;;5044244;28;20124;-60
2024/01/17 12:52:25;;;;;;;6.65;5.95;;;;;;;;;;5045496;28;20143;-60
2024/01/17 12:54:51;;;;;;;6.43;5.43;;;;;;;;;;5045685;28;20067;-60
2024/01/17 12:57:18;;;;;;;6.78;5.68;;;;;;;;;;5044791;28;20040;-60
2024/01/17 12:59:44;;;;;;;7.45;4.88;;;;;;;;;;5045211;28;20088;-60
2024/01/17 13:02:14;;;;;;;6.65;5.20;;;;;;;;;;5044934;28;20482;-60
2024/01/17 13:04:41;;;;;;;7.20;5.72;;;;;;;;;;5044615;28;20136;-59
2024/01/17 13:07:07;;;;;;;9.82;7.18;;;;;;;;;;5044866;28;20044;-60
2024/01/17 13:09:33;;;;;;;9.63;6.57;;;;;;;;;;5044779;28;20040;-60
2024/01/17 13:12:05;;;;;;;8.90;7.03;;;;;;;;;;5044091;28;20053;-60
2024/01/17 13:14:32;;;;;;;;;;;;;;;;;;5045509;28;20049;-59
2024/01/17 13:16:58;;;;;;;6.18;5.47;;;;;;;;;;5045304;28;19924;-60
2024/01/17 13:19:24;;;;;;;6.43;5.22;;;;;;;;;;5044523;28;20148;-60
2024/01/17 13:21:50;;;;;;;6.97;5.47;;;;;;;;;;5045688;28;20071;-60
2024/01/17 13:24:16;;;;;;;6.30;5.70;;;;;;;;;;5044544;28;20045;-59
2024/01/17 13:26:43;;;;;;;5.22;4.70;;;;;;;;;;5045063;28;20096;-59
2024/01/17 13:29:12;;;;;;;5.88;4.90;;;;;;;;;;5044976;28;20041;-60
2024/01/17 13:31:38;;;;;;;7.28;5.80;;;;;;;;;;5044804;28;20045;-60
2024/01/17 13:34:07;;;;;;;5.60;4.82;;;;;;;;;;5048483;28;20108;-60
2024/01/17 13:36:33;;;;;;;5.22;4.35;;;;;;;;;;5048583;28;20052;-60
2024/01/17 13:38:59;;;;;;;6.13;5.50;;;;;;;;;;5047677;28;20546;-60
2024/01/17 13:41:31;;;;;;;4.28;3.88;;;;;;;;;;5048802;28;20075;-60
2024/01/17 13:43:57;;;;;;;4.75;4.05;;;;;;;;;;5048625;28;20059;-60
2024/01/17 13:46:24;;;;;;;3.40;3.10;;;;;;;;;;5047862;28;20059;-60
2024/01/17 13:48:50;;;;;;;6.05;4.07;;;;;;;;;;5048768;28;20045;-60
2024/01/17 13:51:17;;;;;;;3.75;3.45;;;;;;;;;;5048262;28;20040;-60
2024/01/17 13:53:43;;;;;;;3.22;2.92;;;;;;;;;;5048036;28;20106;-60
2024/01/17 13:56:10;;;;;;;3.45;3.15;;;;;;;;;;5048369;28;20049;-60
2024/01/17 13:58:39;;;;;;;2.80;2.60;;;;;;;;;;5048211;28;20541;-60
2024/01/17 14:01:05;;;;;;;3.45;3.15;;;;;;;;;;5047336;28;20036;-60
2024/01/17 14:03:39;;;;;;;3.13;2.83;;;;;;;;;;5048141;28;20053;-60
2024/01/17 14:06:05;;;;;;;3.38;2.60;;;;;;;;;;5030259;28;20120;-60
2024/01/17 14:08:31;;;;;;;4.20;3.50;;;;;;;;;;5036419;28;20537;-60
2024/01/17 14:10:58;;;;;;;5.15;4.63;;;;;;;;;;5041616;28;20511;-59
2024/01/17 14:13:24;;;;;;;7.45;5.75;;;;;;;;;;5042062;28;20670;-60
2024/01/17 14:15:50;;;;;;;5.60;4.80;;;;;;;;;;5046279;28;20033;-60
2024/01/17 14:18:16;;;;;;;4.85;4.45;;;;;;;;;;5047224;28;20494;-60
2024/01/17 14:20:42;;;;;;;5.05;4.38;;;;;;;;;;5046947;28;20123;-63
2024/01/17 14:23:08;;;;;;;4.90;4.15;;;;;;;;;;5043142;28;20558;-60
2024/01/17 14:25:35;;;;;;;5.22;4.72;;;;;;;;;;5037694;28;20084;-60
2024/01/17 14:28:05;;;;;;;5.03;4.53;;;;;;;;;;5042034;28;20041;-61
2024/01/17 14:30:31;;;;;;;7.63;4.07;;;;;;;;;;5044830;28;20072;-60
2024/01/17 14:32:59;;;;;;;4.50;4.10;;;;;;;;;;5040065;28;20575;-60